Time;durP1;ratioP1;P1;durP2;ratioP2;P2;SDS_P1;SDS_P2;PMS_P1;PMS_P2;Temp;Humidity;BMP_temperature;BMP_pressure;BME280_temperature;BME280_humidity;BME280_pressure;Samples;Min_cycle;Max_cycle;Signal;HPM_P1;HPM_P2
2022/04/01 00:00:38;;;;;;;8.07;3.15;;;0.60;99.90;;;;;;6166306;23;19997;-71
2022/04/01 00:03:05;;;;;;;6.60;3.40;;;0.60;99.90;;;;;;6163224;23;20028;-71
2022/04/01 00:05:33;;;;;;;7.47;3.55;;;0.60;99.90;;;;;;6163047;23;20001;-70
2022/04/01 00:08:00;;;;;;;5.82;3.40;;;0.50;99.90;;;;;;6212244;23;20028;-69
2022/04/01 00:10:27;;;;;;;6.28;3.38;;;0.60;99.90;;;;;;6162483;23;20007;-70
2022/04/01 00:12:53;;;;;;;6.60;3.40;;;0.60;99.90;;;;;;6163078;23;20017;-69
2022/04/01 00:15:19;;;;;;;7.38;3.20;;;0.60;99.90;;;;;;6187406;23;20024;-69
2022/04/01 00:17:45;;;;;;;6.72;3.38;;;0.60;99.90;;;;;;6187462;23;20013;-70
2022/04/01 00:20:17;;;;;;;6.95;3.47;;;0.50;99.90;;;;;;6162769;23;20009;-69
2022/04/01 00:22:44;;;;;;;6.60;3.10;;;0.60;99.90;;;;;;6187228;23;20016;-71
2022/04/01 00:25:10;;;;;;;7.70;3.70;;;0.50;99.90;;;;;;6187444;23;20035;-71
2022/04/01 00:38:49;;;;;;;4.47;3.13;;;0.40;99.90;;;;;;6228518;22;20020;-70
2022/04/01 00:41:14;;;;;;;4.47;2.80;;;0.40;99.90;;;;;;6218037;23;20021;-71
2022/04/01 00:43:42;;;;;;;5.57;2.75;;;0.40;99.90;;;;;;6217585;23;20023;-70
2022/04/01 00:46:09;;;;;;;5.18;2.70;;;0.40;99.90;;;;;;6192627;23;20000;-70
2022/04/01 00:48:34;;;;;;;4.90;2.72;;;0.40;99.90;;;;;;6217686;23;20039;-70
2022/04/01 00:51:01;;;;;;;7.25;3.00;;;0.40;99.90;;;;;;6218072;23;20040;-71
2022/04/01 00:53:27;;;;;;;4.07;2.90;;;0.40;99.90;;;;;;6192844;23;20020;-69
2022/04/01 00:55:53;;;;;;;6.40;2.70;;;0.40;99.90;;;;;;6218254;23;20013;-70
2022/04/01 00:58:20;;;;;;;4.63;2.90;;;0.40;99.90;;;;;;6217854;23;20052;-72
2022/04/01 01:00:47;;;;;;;5.30;2.88;;;0.40;99.90;;;;;;6217544;23;20030;-71
2022/04/01 01:03:13;;;;;;;4.75;2.50;;;0.40;99.90;;;;;;6192869;23;20007;-70
2022/04/01 01:05:39;;;;;;;6.22;2.45;;;0.40;99.90;;;;;;6217105;23;20016;-71
2022/04/01 01:08:07;;;;;;;4.40;2.85;;;0.30;99.90;;;;;;6217542;23;20027;-70
2022/04/01 01:10:34;;;;;;;4.07;2.78;;;0.30;99.90;;;;;;6193172;23;20020;-71
2022/04/01 01:13:02;;;;;;;10.75;2.65;;;0.40;99.90;;;;;;6192828;23;20027;-72
2022/04/01 01:15:27;;;;;;;3.38;2.30;;;0.30;99.90;;;;;;6192481;23;20015;-71
2022/04/01 01:17:54;;;;;;;7.22;2.42;;;0.40;99.90;;;;;;6192951;23;20017;-70
2022/04/01 01:20:20;;;;;;;3.95;2.42;;;0.40;99.90;;;;;;6192690;23;20024;-72
2022/04/01 01:22:49;;;;;;;5.70;2.45;;;0.40;99.90;;;;;;6192867;23;19996;-72
2022/04/01 01:25:18;;;;;;;3.42;2.25;;;0.40;99.90;;;;;;6217131;23;20016;-70
2022/04/01 01:27:45;;;;;;;3.10;2.40;;;0.40;99.90;;;;;;6217750;23;20019;-70
2022/04/01 01:30:14;;;;;;;7.30;2.53;;;0.40;99.90;;;;;;6192324;23;20020;-70
2022/04/01 01:32:40;;;;;;;3.95;2.20;;;0.40;99.90;;;;;;6217148;22;20021;-70
2022/04/01 01:35:08;;;;;;;5.65;2.63;;;0.40;99.90;;;;;;6192387;23;20025;-69
2022/04/01 01:37:35;;;;;;;5.00;2.40;;;0.40;99.90;;;;;;6217300;23;20000;-72
2022/04/01 01:40:03;;;;;;;5.72;2.38;;;0.40;99.90;;;;;;6217418;23;20021;-71
2022/04/01 01:42:30;;;;;;;3.85;2.40;;;0.40;99.90;;;;;;6192801;23;20004;-70
2022/04/01 01:44:58;;;;;;;5.00;2.42;;;0.40;99.90;;;;;;6217225;23;20024;-70
2022/04/01 01:47:24;;;;;;;6.68;2.72;;;0.40;99.90;;;;;;6181839;23;20045;-70
2022/04/01 01:55:19;;;;;;;5.85;2.50;;;0.50;99.90;;;;;;6156921;23;20052;-71
2022/04/01 01:57:45;;;;;;;5.45;2.58;;;0.40;99.90;;;;;;6133004;23;20001;-69
2022/04/01 02:00:12;;;;;;;4.30;2.45;;;0.40;99.90;;;;;;6157053;23;20029;-69
2022/04/01 02:02:39;;;;;;;4.00;2.40;;;0.50;99.90;;;;;;6128976;23;20032;-70
2022/04/01 02:05:06;;;;;;;5.22;2.80;;;0.50;99.90;;;;;;6156859;23;20025;-72
2022/04/01 02:07:32;;;;;;;4.30;2.63;;;0.40;99.90;;;;;;6158724;23;20092;-69
2022/04/01 02:09:59;;;;;;;4.50;2.95;;;0.50;99.90;;;;;;6158624;23;20017;-71
2022/04/01 02:12:25;;;;;;;6.13;2.60;;;0.40;99.90;;;;;;6134611;23;20032;-71
2022/04/01 02:14:51;;;;;;;5.82;2.80;;;0.40;99.90;;;;;;6158830;23;20055;-71
2022/04/01 02:17:17;;;;;;;4.50;2.65;;;0.40;99.90;;;;;;6162333;23;20005;-71
2022/04/01 02:19:44;;;;;;;6.18;2.85;;;0.40;99.90;;;;;;6189329;23;20017;-71
2022/04/01 02:22:10;;;;;;;5.85;2.88;;;0.40;99.90;;;;;;6188823;23;19997;-69
2022/04/01 02:24:36;;;;;;;6.15;2.65;;;0.40;99.90;;;;;;6188951;23;20013;-70
2022/04/01 02:34:49;;;;;;;6.30;2.58;;;0.40;99.90;;;;;;6224301;22;20029;-70
2022/04/01 02:37:16;;;;;;;6.20;2.80;;;0.40;99.90;;;;;;6219076;23;20047;-72
2022/04/01 02:39:43;;;;;;;6.78;2.72;;;0.40;99.90;;;;;;6219421;23;20004;-71
2022/04/01 02:42:09;;;;;;;6.25;2.80;;;0.40;99.90;;;;;;6219547;23;20016;-71
2022/04/01 02:44:35;;;;;;;5.72;2.58;;;0.40;99.90;;;;;;6245504;23;19997;-70
2022/04/01 02:47:03;;;;;;;4.10;2.30;;;0.50;99.90;;;;;;6193979;23;20017;-70
2022/04/01 02:49:29;;;;;;;5.57;3.00;;;0.50;99.90;;;;;;6194406;23;20017;-71
2022/04/01 02:51:55;;;;;;;6.18;2.80;;;0.50;99.90;;;;;;6219062;23;20004;-72
2022/04/01 02:54:21;;;;;;;5.63;2.60;;;0.50;99.90;;;;;;6193965;23;20009;-72
2022/04/01 02:56:47;;;;;;;3.95;2.65;;;0.50;99.90;;;;;;6219547;23;20024;-70
2022/04/01 02:59:13;;;;;;;5.15;2.67;;;0.50;99.90;;;;;;6193577;23;20023;-72
2022/04/01 03:01:41;;;;;;;7.13;2.60;;;0.50;99.90;;;;;;6193502;23;20016;-72
2022/04/01 03:04:10;;;;;;;5.75;2.70;;;0.50;99.90;;;;;;6219090;23;20009;-71
2022/04/01 03:06:43;;;;;;;7.38;2.75;;;0.40;99.90;;;;;;6193884;23;20027;-70
2022/04/01 03:09:12;;;;;;;4.00;2.28;;;0.40;99.90;;;;;;6218742;23;20024;-71
2022/04/01 03:11:39;;;;;;;4.45;2.22;;;0.50;99.90;;;;;;6219231;23;20011;-70
2022/04/01 03:14:08;;;;;;;3.92;2.55;;;0.40;99.90;;;;;;6218758;23;20027;-71
2022/04/01 03:16:40;;;;;;;4.60;2.42;;;0.50;99.90;;;;;;6218988;23;20004;-70
2022/04/01 03:19:10;;;;;;;4.65;2.55;;;0.50;99.90;;;;;;6193142;23;20020;-71
2022/04/01 03:21:40;;;;;;;5.07;2.53;;;0.50;99.90;;;;;;6244335;23;20001;-70
2022/04/01 03:24:09;;;;;;;7.10;2.75;;;0.50;99.90;;;;;;6218957;23;20019;-71
2022/04/01 03:26:36;;;;;;;5.05;2.60;;;0.50;99.90;;;;;;6218440;23;20013;-72
2022/04/01 03:29:03;;;;;;;4.43;2.30;;;0.50;99.90;;;;;;6244758;23;20003;-73
2022/04/01 03:31:29;;;;;;;4.15;2.47;;;0.50;99.90;;;;;;6218501;23;20020;-70
2022/04/01 03:33:56;;;;;;;5.45;2.40;;;0.50;99.90;;;;;;6217986;23;20064;-72
2022/04/01 03:36:22;;;;;;;4.43;2.28;;;0.50;99.90;;;;;;6244059;23;20017;-71
2022/04/01 03:38:48;;;;;;;7.80;2.42;;;0.60;99.90;;;;;;6244235;22;20021;-70
2022/04/01 03:41:15;;;;;;;5.30;2.22;;;0.50;99.90;;;;;;6193952;23;20001;-71
2022/04/01 07:44:57;;;;;;;4.18;2.10;;;2.30;99.90;;;;;;6213274;23;20449;-70
2022/04/01 07:47:24;;;;;;;2.83;1.40;;;2.30;99.90;;;;;;6188435;23;20032;-71
2022/04/01 07:49:51;;;;;;;2.90;1.75;;;2.30;99.90;;;;;;6164176;23;20001;-71
2022/04/01 07:52:19;;;;;;;5.10;1.90;;;2.40;99.90;;;;;;6164132;23;20017;-70
2022/04/01 07:54:46;;;;;;;4.70;2.00;;;2.40;99.90;;;;;;6163911;23;20075;-70
2022/04/01 07:57:13;;;;;;;3.40;1.90;;;2.50;99.90;;;;;;6188185;23;20001;-70
2022/04/01 07:59:39;;;;;;;4.45;2.10;;;2.50;99.90;;;;;;6163336;23;20024;-71
2022/04/01 08:02:07;;;;;;;5.70;2.17;;;2.50;99.90;;;;;;6164038;23;20005;-72
2022/04/01 08:04:34;;;;;;;4.55;2.45;;;2.50;99.90;;;;;;6163981;23;20053;-72
